Aérodrome :
LOGIN :

S'inscrire | Disclaimer

   EN    FR    IT 

 










Légende :    VFR   VFR Marginal   IFR   IFR Intensif   IFR Très Intensif
Visi : 
Plafond : 
>= 8 km
>= 3000ft
5 à 8 km
1000 à 3000 ft
1500m à 5 km
500 à 1000 ft
800 à 1500m
200 à 500 ft
< 800m
< 200 ft
Symboles :   Orages  Brouillard  Fortes neiges  Fortes précipitations  Vent > 20 kt
SIGMETs :   Divers  Orages  Givrage  Turbulence  Onde Orograph.  Cendres Volcan.







- Altitude de l'aérodrome : 12 ft
- Code IATA : BCN


LEBL - Barcelone

DERNIER METAR :
  • 182100Z 08019KT 9999 SCT020 BKN055 15/11 Q1009 NOSIG

METARs EXPIRÉS :
  • 182030Z 08018KT 9999 FEW025 14/11 Q1009 NOSIG
  • 182000Z 08019KT 060V120 9999 -RA FEW020 SCT055 14/11 Q1009 NOSIG
  • 181930Z 08016G26KT 9999 FEW022 SCT055 14/10 Q1009 NOSIG
  • 181900Z 08018KT 9999 FEW020 BKN046 15/11 Q1009 NOSIG
  • 181830Z 08018KT 9999 FEW015 BKN046 15/11 Q1010 RERA NOSIG

TAF TAF LEBL
Valide du 18 à 18h jusqu'au 19 à 18h UTC


181700Z 1818/1918 08016KT 9999 FEW030 BKN050 TX16/1912Z TN10/1906Z
TEMPO 1818/1910 4000 SHRA BKN015 FEW022CB
PROB40
TEMPO 1818/1820 3000 TSRA SCT018CB BKN022
BECMG 1902/1904 04012KT
Pas de NOTAMs connus pour ce terrain.



MET'MAP, la Météo Aéronautique d'un coup d'oeil ! - Copyright ORBIFLY Décembre 2007 - Disclaimer

ORBIFLY MET'MAP TEAM :

Programmation & Développement : Alexandra Zaïnal
Conception & Développement : Baudouin d'Aumeries
Co-Programmation & Développement : Marc-Olivier Méhu
Soutien technique & logistique : Manuel Goepfert

Contact : metmap@orbifly.com




SOURCES & CREDITS :

   NOAA